Time;durP1;ratioP1;P1;durP2;ratioP2;P2;SDS_P1;SDS_P2;PMS_P1;PMS_P2;Temp;Humidity;BMP_temperature;BMP_pressure;BME280_temperature;BME280_humidity;BME280_pressure;Samples;Min_cycle;Max_cycle;Signal;HPM_P1;HPM_P2
2021/12/20 00:00:34;;;;;;;10.73;6.80;;;18.70;47.30;;;;;;5174176;28;20061;-89
2021/12/20 00:03:10;;;;;;;10.60;7.72;;;18.70;47.70;;;;;;5196589;28;20566;-88
2021/12/20 00:05:44;;;;;;;13.07;8.77;;;18.70;47.40;;;;;;5212876;28;20052;-88
2021/12/20 00:08:23;;;;;;;14.43;9.07;;;18.70;47.20;;;;;;5195609;28;20046;-88
2021/12/20 00:10:56;;;;;;;14.13;8.85;;;18.70;47.30;;;;;;5198572;28;20051;-88
2021/12/20 00:13:36;;;;;;;11.45;7.40;;;18.60;47.20;;;;;;5181946;28;20056;-87
2021/12/20 00:16:14;;;;;;;13.98;9.13;;;18.60;47.40;;;;;;5197596;28;20410;-88
2021/12/20 00:18:47;;;;;;;10.80;7.37;;;18.60;47.30;;;;;;5211832;28;20041;-87
2021/12/20 00:21:20;;;;;;;10.95;7.55;;;18.50;47.30;;;;;;5178810;28;20046;-88
2021/12/20 00:23:53;;;;;;;13.43;8.02;;;18.60;47.70;;;;;;5178352;28;20041;-88
2021/12/20 00:26:26;;;;;;;9.23;6.90;;;18.50;47.30;;;;;;5194984;28;20044;-90
2021/12/20 00:29:00;;;;;;;10.83;7.60;;;18.50;47.50;;;;;;5210543;28;20050;-87
2021/12/20 00:31:33;;;;;;;12.75;8.25;;;18.50;47.50;;;;;;5196147;28;20315;-86
2021/12/20 00:34:06;;;;;;;11.80;8.00;;;18.50;47.60;;;;;;5191736;28;20056;-89
2021/12/20 00:36:39;;;;;;;8.70;6.20;;;18.50;47.60;;;;;;5194421;28;20487;-86
2021/12/20 00:42:13;;;;;;;12.85;8.32;;;18.60;48.10;;;;;;5118487;28;20058;-56
2021/12/20 00:44:46;;;;;;;10.98;7.70;;;18.60;47.60;;;;;;5138463;28;20055;-58
2021/12/20 00:47:18;;;;;;;8.43;6.10;;;18.60;48.00;;;;;;5122738;28;20085;-57
2021/12/20 00:49:50;;;;;;;12.30;8.40;;;18.60;48.20;;;;;;5120958;28;20043;-54
2021/12/20 00:52:23;;;;;;;11.82;8.00;;;18.60;47.80;;;;;;5122172;28;20631;-55
2021/12/20 00:54:55;;;;;;;10.25;7.38;;;18.70;47.60;;;;;;5120127;28;20642;-57
2021/12/20 00:57:28;;;;;;;12.05;8.43;;;18.60;47.50;;;;;;5120120;28;20047;-52
2021/12/20 01:00:01;;;;;;;9.63;7.05;;;18.60;47.50;;;;;;5125749;28;20047;-50
2021/12/20 01:02:33;;;;;;;11.40;7.82;;;18.60;47.60;;;;;;5118379;28;20308;-55
2021/12/20 01:05:06;;;;;;;13.18;7.85;;;18.50;47.30;;;;;;5124155;28;20043;-54
2021/12/20 01:07:39;;;;;;;11.03;8.10;;;18.50;47.50;;;;;;5123003;28;20050;-56
2021/12/20 01:10:11;;;;;;;11.57;7.45;;;18.50;47.40;;;;;;5122235;28;20305;-55
2021/12/20 01:12:47;;;;;;;12.70;8.75;;;18.50;47.40;;;;;;5121130;28;20062;-52
2021/12/20 01:15:24;;;;;;;12.05;8.73;;;18.40;47.10;;;;;;5122852;28;20050;-57
2021/12/20 01:17:56;;;;;;;12.07;8.68;;;18.30;47.10;;;;;;5123335;28;20043;-53
2021/12/20 01:20:29;;;;;;;11.98;8.00;;;18.20;47.30;;;;;;5121162;28;20039;-56
2021/12/20 01:23:03;;;;;;;12.32;8.20;;;18.20;47.30;;;;;;5124793;28;20047;-52
2021/12/20 01:25:36;;;;;;;13.60;9.45;;;18.20;47.60;;;;;;5122661;28;20449;-56
2021/12/20 01:28:09;;;;;;;10.73;7.73;;;18.20;47.40;;;;;;5122142;28;20055;-56
2021/12/20 01:30:42;;;;;;;10.45;7.00;;;18.20;47.70;;;;;;5117551;28;20050;-55
2021/12/20 01:33:14;;;;;;;10.80;7.32;;;18.20;47.70;;;;;;5124532;28;20782;-57
2021/12/20 01:35:47;;;;;;;12.95;8.65;;;18.20;47.50;;;;;;5121979;28;20218;-56
2021/12/20 01:38:19;;;;;;;12.32;8.38;;;18.20;47.60;;;;;;5118859;28;20043;-56
2021/12/20 01:40:52;;;;;;;10.52;7.32;;;18.20;47.80;;;;;;5120002;28;20045;-57
2021/12/20 01:43:24;;;;;;;12.05;7.85;;;18.20;47.70;;;;;;5124753;28;20047;-55
2021/12/20 01:45:59;;;;;;;10.75;7.35;;;18.10;47.50;;;;;;5120174;28;20049;-57
2021/12/20 01:48:32;;;;;;;13.32;8.60;;;18.10;47.60;;;;;;5119903;28;20503;-55
2021/12/20 01:53:40;;;;;;;8.55;5.90;;;18.10;48.20;;;;;;5120583;28;20047;-57
2021/12/20 01:56:13;;;;;;;7.07;5.15;;;18.20;49.00;;;;;;5119893;28;20067;-57
2021/12/20 01:58:45;;;;;;;8.63;6.13;;;18.30;49.10;;;;;;5122462;28;20070;-56
2021/12/20 02:01:19;;;;;;;8.52;6.65;;;18.30;48.60;;;;;;5119287;28;20043;-55
2021/12/20 02:03:57;;;;;;;7.40;5.38;;;18.40;48.50;;;;;;5117947;28;20495;-55
2021/12/20 02:06:38;;;;;;;6.93;5.45;;;18.40;49.20;;;;;;5134693;28;20487;-58
2021/12/20 02:09:17;;;;;;;10.23;7.00;;;18.40;48.70;;;;;;5120272;28;20407;-57
2021/12/20 02:11:50;;;;;;;8.63;6.35;;;18.40;48.10;;;;;;5122375;28;20062;-58
2021/12/20 02:14:23;;;;;;;11.13;8.18;;;18.40;48.10;;;;;;5122893;28;20047;-54
2021/12/20 02:16:55;;;;;;;10.15;7.40;;;18.40;47.70;;;;;;5122906;28;20046;-57
2021/12/20 02:19:28;;;;;;;8.27;6.03;;;18.30;47.70;;;;;;5120100;28;20058;-55
2021/12/20 02:22:00;;;;;;;10.52;6.68;;;18.30;48.20;;;;;;5120740;28;20047;-55
2021/12/20 02:24:33;;;;;;;13.77;7.65;;;18.40;48.60;;;;;;5124926;28;20484;-57
2021/12/20 02:27:05;;;;;;;9.07;5.97;;;18.30;48.00;;;;;;5105142;28;20120;-55
2021/12/20 02:29:56;;;;;;;10.90;7.75;;;18.40;48.80;;;;;;5121419;28;20066;-55
2021/12/20 02:38:35;;;;;;;9.85;6.70;;;18.40;48.80;;;;;;5121968;28;20509;-55
2021/12/20 02:41:12;;;;;;;11.18;7.47;;;18.40;48.50;;;;;;5122047;28;20058;-54
2021/12/20 02:43:53;;;;;;;10.98;7.35;;;18.40;48.70;;;;;;5123757;28;20035;-56
2021/12/20 02:49:19;;;;;;;11.55;7.80;;;18.40;48.10;;;;;;5119462;28;20051;-54
2021/12/20 02:51:53;;;;;;;12.07;8.00;;;18.40;48.00;;;;;;5122032;28;20062;-57
2021/12/20 02:54:25;;;;;;;12.68;8.85;;;18.40;48.10;;;;;;5123263;28;20625;-57
2021/12/20 02:56:58;;;;;;;13.18;8.80;;;18.30;47.80;;;;;;5121103;28;20042;-55
2021/12/20 02:59:30;;;;;;;11.20;8.35;;;18.30;47.70;;;;;;5123127;28;20047;-55
2021/12/20 03:02:07;;;;;;;15.48;8.63;;;18.20;47.80;;;;;;5124523;28;20050;-57
2021/12/20 03:04:40;;;;;;;12.50;8.15;;;18.20;47.90;;;;;;5118466;28;20047;-57
2021/12/20 03:07:20;;;;;;;11.45;8.07;;;18.10;47.90;;;;;;5122904;28;20062;-57
2021/12/20 03:09:59;;;;;;;9.88;6.40;;;18.10;48.00;;;;;;5119509;28;20061;-54
2021/12/20 03:12:32;;;;;;;10.43;7.22;;;18.20;49.20;;;;;;5119890;28;20043;-56
2021/12/20 03:15:12;;;;;;;13.73;8.82;;;18.20;48.60;;;;;;5137815;28;20044;-56
2021/12/20 03:17:45;;;;;;;9.35;6.70;;;18.20;48.10;;;;;;5122698;28;20035;-58
2021/12/20 03:20:20;;;;;;;7.80;5.70;;;18.20;48.60;;;;;;5121419;28;20492;-57
2021/12/20 03:22:52;;;;;;;10.32;7.65;;;18.20;49.30;;;;;;5122085;28;20627;-55
2021/12/20 03:25:25;;;;;;;11.57;8.25;;;18.20;48.40;;;;;;5118937;28;20502;-58
2021/12/20 03:27:57;;;;;;;11.95;8.32;;;18.20;48.10;;;;;;5117060;28;20040;-55
2021/12/20 03:30:30;;;;;;;13.57;7.35;;;18.20;48.10;;;;;;5114833;28;20070;-54
2021/12/20 03:33:02;;;;;;;10.70;7.28;;;18.20;48.20;;;;;;5121106;28;20063;-56
2021/12/20 03:35:35;;;;;;;11.90;8.15;;;18.20;48.40;;;;;;5121472;28;20055;-49
2021/12/20 03:38:08;;;;;;;11.90;7.93;;;18.20;48.20;;;;;;5119557;28;20063;-54
2021/12/20 03:40:41;;;;;;;9.95;6.75;;;18.20;48.10;;;;;;5122425;28;20039;-56
2021/12/20 03:43:13;;;;;;;10.80;6.30;;;18.20;48.60;;;;;;5123724;28;20420;-57
2021/12/20 03:45:49;;;;;;;9.82;7.10;;;18.20;49.00;;;;;;5130228;28;20039;-57
2021/12/20 03:48:22;;;;;;;10.77;7.20;;;18.30;48.50;;;;;;5124897;28;20055;-57
2021/12/20 03:50:56;;;;;;;8.68;6.05;;;18.20;48.40;;;;;;5122334;28;20248;-53
2021/12/20 03:53:31;;;;;;;15.27;8.85;;;18.20;48.90;;;;;;5129761;28;20051;-55
2021/12/20 03:56:04;;;;;;;10.65;7.25;;;18.20;48.10;;;;;;5120028;28;20047;-56
2021/12/20 03:58:37;;;;;;;11.27;7.72;;;18.20;48.30;;;;;;5123690;28;20051;-57
2021/12/20 04:01:12;;;;;;;13.27;7.78;;;18.20;48.30;;;;;;5121271;28;20068;-53
2021/12/20 04:03:45;;;;;;;12.73;7.05;;;18.20;48.30;;;;;;5124670;28;20048;-55
2021/12/20 04:06:17;;;;;;;9.65;6.78;;;18.20;48.70;;;;;;5121651;28;20043;-56
2021/12/20 04:08:50;;;;;;;10.40;7.50;;;18.20;48.90;;;;;;5122986;28;20043;-53
2021/12/20 04:11:22;;;;;;;12.63;7.60;;;18.20;48.60;;;;;;5119690;28;20051;-55
2021/12/20 04:13:56;;;;;;;13.82;8.48;;;18.20;48.20;;;;;;5124444;28;20392;-58
2021/12/20 04:16:29;;;;;;;11.43;7.90;;;18.10;48.20;;;;;;5128527;28;20046;-53
2021/12/20 04:19:02;;;;;;;11.52;6.88;;;18.10;48.40;;;;;;5122995;28;20043;-57
2021/12/20 04:21:35;;;;;;;14.85;9.73;;;18.10;49.40;;;;;;5140088;28;20043;-52
2021/12/20 04:24:08;;;;;;;12.25;7.82;;;18.10;49.30;;;;;;5117618;28;20205;-53
2021/12/20 04:26:40;;;;;;;13.55;8.13;;;18.20;49.30;;;;;;5121651;28;20059;-55
2021/12/20 04:29:12;;;;;;;11.93;8.10;;;18.20;48.70;;;;;;5124365;28;20077;-54
2021/12/20 04:31:46;;;;;;;13.25;8.60;;;18.20;48.50;;;;;;5125395;28;20043;-55
2021/12/20 04:34:18;;;;;;;11.25;8.50;;;18.20;48.40;;;;;;5123837;28;20062;-55
2021/12/20 04:36:51;;;;;;;16.42;8.88;;;18.20;48.30;;;;;;5124011;28;20047;-56
2021/12/20 04:39:29;;;;;;;12.02;7.50;;;18.30;48.10;;;;;;5123464;28;20058;-57
2021/12/20 04:42:01;;;;;;;14.88;8.68;;;18.30;47.90;;;;;;5118738;28;20995;-57
2021/12/20 04:44:35;;;;;;;13.63;8.50;;;18.30;47.90;;;;;;5122991;28;20047;-56
2021/12/20 04:47:10;;;;;;;14.23;8.82;;;18.30;47.90;;;;;;5126092;28;20059;-57
2021/12/20 04:49:42;;;;;;;13.05;8.27;;;18.40;47.90;;;;;;5125926;28;20039;-56
2021/12/20 04:52:15;;;;;;;16.60;8.48;;;18.40;47.70;;;;;;5122279;28;20057;-55
2021/12/20 04:54:47;;;;;;;12.70;8.23;;;18.40;47.70;;;;;;5121533;28;20046;-56
2021/12/20 04:57:20;;;;;;;10.57;7.72;;;18.40;47.60;;;;;;5124237;28;20058;-56
2021/12/20 04:59:52;;;;;;;11.82;8.02;;;18.40;47.50;;;;;;5115145;28;20054;-55
2021/12/20 05:02:26;;;;;;;15.57;8.13;;;18.40;47.30;;;;;;5121311;28;20047;-58
2021/12/20 05:04:58;;;;;;;13.27;7.45;;;18.40;47.30;;;;;;5122742;28;20051;-57
2021/12/20 05:07:31;;;;;;;11.98;7.75;;;18.40;47.10;;;;;;5123804;28;20447;-57
2021/12/20 05:10:05;;;;;;;11.02;7.80;;;18.40;47.10;;;;;;5118839;28;20092;-59
2021/12/20 05:12:38;;;;;;;11.63;8.30;;;18.40;47.00;;;;;;5124360;28;20051;-57
2021/12/20 05:15:10;;;;;;;12.35;9.05;;;18.40;46.90;;;;;;5125139;28;20447;-57
2021/12/20 05:17:43;;;;;;;13.90;8.20;;;18.40;46.80;;;;;;5122241;28;20061;-57
2021/12/20 05:20:15;;;;;;;9.70;7.32;;;18.40;46.70;;;;;;5124366;28;20059;-51
2021/12/20 05:22:48;;;;;;;10.63;7.88;;;18.40;46.70;;;;;;5122860;28;20419;-51
2021/12/20 05:25:21;;;;;;;11.27;7.83;;;18.40;46.70;;;;;;5122198;28;20061;-58
2021/12/20 05:27:54;;;;;;;11.43;8.32;;;18.40;46.50;;;;;;5119575;28;20055;-52
2021/12/20 05:30:27;;;;;;;12.85;8.10;;;18.40;46.60;;;;;;5118210;28;20137;-54
2021/12/20 05:33:00;;;;;;;11.68;7.78;;;18.40;46.60;;;;;;5120625;28;20055;-50
2021/12/20 05:35:33;;;;;;;10.30;7.87;;;18.50;46.70;;;;;;5120674;28;20043;-55
2021/12/20 05:38:06;;;;;;;15.53;8.50;;;18.50;46.80;;;;;;5120422;28;20174;-54
2021/12/20 05:40:38;;;;;;;11.55;7.63;;;18.50;46.80;;;;;;5125243;28;20314;-53
2021/12/20 05:43:11;;;;;;;17.33;9.00;;;18.50;46.80;;;;;;5120422;28;20042;-56
2021/12/20 05:45:44;;;;;;;12.90;8.10;;;18.50;46.80;;;;;;5118920;28;20408;-57
2021/12/20 05:48:16;;;;;;;10.95;7.72;;;18.50;46.80;;;;;;5118248;28;20051;-56
2021/12/20 05:50:48;;;;;;;12.20;7.22;;;18.50;46.80;;;;;;5131256;28;20047;-56
2021/12/20 05:53:21;;;;;;;10.75;7.40;;;18.50;46.70;;;;;;5119292;28;20057;-56
2021/12/20 05:55:53;;;;;;;14.07;6.45;;;18.60;46.80;;;;;;5114683;28;20130;-56
2021/12/20 05:58:26;;;;;;;18.77;7.63;;;18.60;47.30;;;;;;5103819;28;20051;-55
2021/12/20 06:00:59;;;;;;;11.63;5.40;;;18.80;48.10;;;;;;5114242;28;20756;-58
2021/12/20 06:03:31;;;;;;;15.90;5.07;;;18.90;48.70;;;;;;5113095;28;20341;-57
2021/12/20 06:06:03;;;;;;;15.63;4.43;;;19.10;49.30;;;;;;5112699;28;20070;-55
2021/12/20 06:08:36;;;;;;;23.55;4.97;;;19.20;49.80;;;;;;5107509;28;20463;-58
2021/12/20 06:11:08;;;;;;;12.75;4.47;;;19.30;50.50;;;;;;5110197;28;20042;-57
2021/12/20 06:13:41;;;;;;;16.17;5.13;;;19.30;50.70;;;;;;5098981;28;20052;-54
2021/12/20 06:16:14;;;;;;;21.50;4.60;;;19.40;50.90;;;;;;5102739;28;20507;-56
2021/12/20 06:18:46;;;;;;;13.55;4.57;;;19.50;51.00;;;;;;5105211;28;20062;-56
2021/12/20 06:21:19;;;;;;;17.10;4.55;;;19.50;51.00;;;;;;5109194;28;20054;-55
2021/12/20 06:23:51;;;;;;;22.13;5.07;;;19.50;50.80;;;;;;5108227;28;21497;-56
2021/12/20 06:26:24;;;;;;;12.63;4.10;;;19.60;50.70;;;;;;5106097;28;20059;-55
2021/12/20 06:28:56;;;;;;;15.57;4.65;;;19.60;50.60;;;;;;5112072;28;20043;-57
2021/12/20 06:31:29;;;;;;;22.08;4.82;;;19.70;50.60;;;;;;5104673;28;20407;-59
2021/12/20 06:34:01;;;;;;;11.57;4.32;;;19.70;50.40;;;;;;5109350;28;20050;-57
2021/12/20 06:36:34;;;;;;;12.70;4.90;;;19.80;50.50;;;;;;5109508;28;20054;-56
2021/12/20 06:39:07;;;;;;;15.95;4.95;;;19.80;50.40;;;;;;5106734;28;20040;-58
2021/12/20 06:41:39;;;;;;;17.38;4.50;;;19.80;50.40;;;;;;5107788;28;20054;-57
2021/12/20 06:44:12;;;;;;;10.45;3.97;;;19.80;50.30;;;;;;5107513;28;20393;-55
2021/12/20 06:46:45;;;;;;;14.02;3.65;;;19.90;50.30;;;;;;5105732;28;20660;-57
2021/12/20 06:49:17;;;;;;;13.43;4.60;;;19.90;50.30;;;;;;5108100;28;20047;-56
2021/12/20 06:51:51;;;;;;;10.85;4.45;;;19.90;50.30;;;;;;5101330;28;20055;-58
2021/12/20 06:54:24;;;;;;;12.40;4.57;;;20.00;50.30;;;;;;5096337;28;20062;-58
2021/12/20 06:56:56;;;;;;;11.35;3.67;;;20.00;50.30;;;;;;5093396;28;20089;-56
2021/12/20 06:59:29;;;;;;;7.68;3.83;;;20.00;50.30;;;;;;5099578;28;20132;-57
2021/12/20 07:02:01;;;;;;;13.13;4.40;;;20.10;50.30;;;;;;5097711;28;20057;-59
2021/12/20 07:04:34;;;;;;;8.98;3.83;;;20.10;50.30;;;;;;5109383;28;20042;-58
2021/12/20 07:07:06;;;;;;;8.70;3.97;;;20.10;50.20;;;;;;5110497;28;20419;-59
2021/12/20 07:09:39;;;;;;;8.38;3.92;;;20.10;50.10;;;;;;5098381;28;20305;-59
2021/12/20 07:12:11;;;;;;;13.68;3.97;;;20.20;50.10;;;;;;5100557;28;20050;-57
2021/12/20 07:14:44;;;;;;;10.50;3.85;;;20.20;50.10;;;;;;5116533;28;20047;-58
2021/12/20 07:17:20;;;;;;;11.10;3.83;;;20.20;50.10;;;;;;5096482;28;20442;-59
2021/12/20 07:19:53;;;;;;;8.15;3.65;;;20.20;50.10;;;;;;5115659;28;20062;-59
2021/12/20 07:22:25;;;;;;;10.93;3.38;;;20.30;50.20;;;;;;5113672;28;20131;-57
2021/12/20 07:24:58;;;;;;;10.52;4.30;;;20.30;50.20;;;;;;5118243;28;20539;-58
2021/12/20 07:27:31;;;;;;;10.57;3.55;;;20.30;50.20;;;;;;5112810;28;20050;-57
2021/12/20 07:30:04;;;;;;;13.15;4.22;;;20.30;50.20;;;;;;5122562;28;20055;-58
2021/12/20 07:32:37;;;;;;;;;;;20.30;50.20;;;;;;5106667;28;20047;-58
2021/12/20 07:35:10;;;;;;;11.30;3.75;;;20.30;50.20;;;;;;5114893;28;19926;-60
2021/12/20 07:37:43;;;;;;;8.82;3.60;;;20.30;50.20;;;;;;5117453;28;20054;-57
2021/12/20 07:40:16;;;;;;;;;;;20.30;50.20;;;;;;5120104;28;20054;-54
2021/12/20 07:42:48;;;;;;;9.70;3.75;;;20.30;50.20;;;;;;5117155;28;19932;-58
2021/12/20 07:45:21;;;;;;;10.93;3.58;;;20.30;50.20;;;;;;5116001;28;20047;-53
2021/12/20 07:47:53;;;;;;;6.90;3.25;;;20.30;50.20;;;;;;5122940;28;20042;-56
2021/12/20 07:50:26;;;;;;;7.20;3.03;;;20.30;50.10;;;;;;5121574;28;20053;-57
2021/12/20 07:52:58;;;;;;;7.22;3.22;;;20.30;50.00;;;;;;5116509;28;20132;-58
2021/12/20 07:55:31;;;;;;;6.57;3.20;;;20.30;50.00;;;;;;5124661;28;20061;-53
2021/12/20 07:58:04;;;;;;;6.90;3.10;;;20.30;50.00;;;;;;5123987;28;20051;-58
2021/12/20 08:00:38;;;;;;;10.98;3.03;;;20.40;50.10;;;;;;5124980;28;20051;-58
2021/12/20 08:03:11;;;;;;;6.15;2.83;;;20.40;50.10;;;;;;5122292;28;20055;-56
2021/12/20 08:05:44;;;;;;;7.10;3.00;;;20.40;50.00;;;;;;5126807;28;20495;-57
2021/12/20 08:08:16;;;;;;;6.50;3.05;;;20.40;50.00;;;;;;5124047;28;20392;-56
2021/12/20 08:10:49;;;;;;;4.05;2.78;;;20.40;50.00;;;;;;5127888;28;20414;-58
2021/12/20 08:13:22;;;;;;;5.10;3.20;;;20.40;50.00;;;;;;5124617;28;20522;-56
2021/12/20 08:15:59;;;;;;;7.22;3.22;;;20.50;50.10;;;;;;5124846;28;20047;-56
2021/12/20 08:18:31;;;;;;;6.65;3.25;;;20.40;49.90;;;;;;5124622;28;20054;-51
2021/12/20 08:21:03;;;;;;;5.45;3.28;;;20.40;50.00;;;;;;5125285;28;20058;-58
2021/12/20 08:23:36;;;;;;;6.15;2.88;;;20.50;50.00;;;;;;5126345;28;20514;-54
2021/12/20 08:26:09;;;;;;;5.07;3.13;;;20.40;49.90;;;;;;5125433;28;20058;-59
2021/12/20 08:28:42;;;;;;;8.43;3.23;;;20.40;49.90;;;;;;5126381;28;20046;-54
2021/12/20 08:31:14;;;;;;;7.35;3.00;;;20.40;49.90;;;;;;5125742;28;20646;-58
2021/12/20 08:33:47;;;;;;;9.27;3.08;;;20.50;49.90;;;;;;5127375;28;20055;-55
2021/12/20 08:36:19;;;;;;;8.65;3.38;;;20.50;49.90;;;;;;5121159;28;20123;-55
2021/12/20 08:38:52;;;;;;;4.70;2.47;;;20.50;49.90;;;;;;5126672;28;20047;-57
2021/12/20 08:41:24;;;;;;;4.18;2.72;;;20.50;49.90;;;;;;5121447;28;20066;-55
2021/12/20 08:43:57;;;;;;;8.82;2.72;;;20.50;49.90;;;;;;5124408;28;20411;-52
2021/12/20 08:46:30;;;;;;;5.65;2.90;;;20.50;49.90;;;;;;5125674;28;20051;-55
2021/12/20 08:49:02;;;;;;;4.25;2.88;;;20.50;49.90;;;;;;5126280;28;20050;-54
2021/12/20 08:51:36;;;;;;;8.20;2.90;;;20.60;50.00;;;;;;5124844;28;20538;-55
2021/12/20 08:54:08;;;;;;;;;;;20.50;49.90;;;;;;5123436;28;20058;-54
2021/12/20 08:56:41;;;;;;;4.50;2.58;;;20.50;49.90;;;;;;5123550;28;20314;-55
2021/12/20 08:59:14;;;;;;;5.18;2.63;;;20.50;50.00;;;;;;5124659;28;20047;-57
2021/12/20 09:01:47;;;;;;;6.07;2.80;;;20.50;49.90;;;;;;5123958;28;20551;-58
2021/12/20 09:04:19;;;;;;;6.18;2.17;;;20.60;50.00;;;;;;5125813;28;20039;-57
2021/12/20 09:06:52;;;;;;;6.35;2.65;;;20.50;49.90;;;;;;5123051;28;20046;-57
2021/12/20 09:09:25;;;;;;;5.10;2.78;;;20.60;49.90;;;;;;5124470;28;20058;-55
2021/12/20 09:11:57;;;;;;;7.25;3.03;;;20.60;49.90;;;;;;5123426;28;20055;-58
2021/12/20 09:14:32;;;;;;;5.55;2.30;;;20.60;49.90;;;;;;5139857;28;20059;-57
2021/12/20 09:17:05;;;;;;;4.28;2.75;;;20.60;49.90;;;;;;5123560;28;20046;-57
2021/12/20 09:19:38;;;;;;;3.88;2.75;;;20.60;49.90;;;;;;5121893;28;20496;-58
2021/12/20 09:22:11;;;;;;;3.63;2.35;;;20.60;49.90;;;;;;5124320;28;20093;-57
2021/12/20 09:24:44;;;;;;;;;;;20.60;49.90;;;;;;5122821;28;20043;-57
2021/12/20 09:27:17;;;;;;;6.93;3.35;;;20.60;49.90;;;;;;5123906;28;19930;-55
2021/12/20 09:29:49;;;;;;;5.72;2.83;;;20.60;49.90;;;;;;5123100;28;20051;-55
2021/12/20 09:32:21;;;;;;;3.60;2.83;;;20.60;49.90;;;;;;5125623;28;20043;-56
2021/12/20 09:34:54;;;;;;;3.88;2.22;;;20.60;49.90;;;;;;5120728;28;20043;-56
2021/12/20 09:37:26;;;;;;;3.30;2.10;;;20.60;49.90;;;;;;5117721;28;20038;-57
2021/12/20 09:40:00;;;;;;;4.60;2.58;;;20.60;49.90;;;;;;5121540;28;20058;-57
2021/12/20 09:42:32;;;;;;;;;;;20.60;49.90;;;;;;5121701;28;20043;-56
2021/12/20 09:45:05;;;;;;;4.85;2.45;;;20.60;49.90;;;;;;5123617;28;20023;-58
2021/12/20 09:47:38;;;;;;;4.70;3.10;;;20.60;49.90;;;;;;5124808;28;20054;-55
2021/12/20 09:50:12;;;;;;;4.00;2.47;;;20.60;49.90;;;;;;5121344;28;20549;-59
2021/12/20 09:52:45;;;;;;;6.10;2.75;;;20.60;49.90;;;;;;5123596;28;20110;-58
2021/12/20 09:55:19;;;;;;;4.25;2.47;;;20.60;49.90;;;;;;5124204;28;20060;-57
2021/12/20 09:57:52;;;;;;;4.50;2.80;;;20.60;49.90;;;;;;5121177;28;20039;-58
2021/12/20 10:00:24;;;;;;;4.73;2.73;;;20.70;49.90;;;;;;5122490;28;20051;-57
2021/12/20 10:02:56;;;;;;;4.63;2.70;;;20.60;49.80;;;;;;5122384;28;20047;-55
2021/12/20 10:05:30;;;;;;;2.97;2.63;;;20.70;49.90;;;;;;5122907;28;20063;-56
2021/12/20 10:08:19;;;;;;;3.33;2.47;;;20.70;49.90;;;;;;5121660;28;20388;-58
2021/12/20 10:10:52;;;;;;;4.90;2.35;;;20.70;49.90;;;;;;5120366;28;20046;-57
2021/12/20 10:13:43;;;;;;;3.08;2.22;;;20.70;49.90;;;;;;5123765;28;20073;-58
2021/12/20 10:16:17;;;;;;;5.25;2.30;;;20.70;49.80;;;;;;5121933;28;20054;-58
2021/12/20 10:18:50;;;;;;;3.85;2.33;;;20.70;49.90;;;;;;5121439;28;20483;-57
2021/12/20 10:21:41;;;;;;;6.88;2.50;;;20.70;49.90;;;;;;5122601;28;20406;-58
2021/12/20 10:24:35;;;;;;;3.50;2.30;;;20.70;49.80;;;;;;5121256;28;20136;-55
2021/12/20 10:27:36;;;;;;;3.70;2.60;;;20.80;49.90;;;;;;5124438;28;20050;-56
2021/12/20 10:30:30;;;;;;;4.72;2.53;;;20.80;49.90;;;;;;5122121;28;20522;-58
2021/12/20 10:33:04;;;;;;;3.22;2.13;;;20.70;49.80;;;;;;5122550;28;20492;-54
2021/12/20 10:36:13;;;;;;;4.93;2.95;;;20.70;49.90;;;;;;5119167;28;20062;-58
2021/12/20 10:38:56;;;;;;;4.78;2.22;;;20.70;50.50;;;;;;5116339;28;20051;-56
2021/12/20 10:41:35;;;;;;;2.78;2.33;;;20.70;49.90;;;;;;5119888;28;20681;-54
2021/12/20 10:44:20;;;;;;;2.30;2.05;;;20.70;49.90;;;;;;5116120;28;20053;-54
2021/12/20 10:46:56;;;;;;;3.10;2.45;;;20.80;49.90;;;;;;5124989;28;20043;-58
2021/12/20 10:49:30;;;;;;;4.53;2.38;;;20.80;49.90;;;;;;5123366;28;20288;-54
2021/12/20 10:52:03;;;;;;;4.22;2.20;;;20.80;50.00;;;;;;5124105;28;20496;-53
2021/12/20 10:54:42;;;;;;;3.45;2.10;;;20.80;49.90;;;;;;5130762;28;20066;-57
2021/12/20 10:57:25;;;;;;;3.75;2.60;;;20.80;49.90;;;;;;5115629;28;20054;-57
2021/12/20 11:00:27;;;;;;;3.95;2.10;;;20.80;49.90;;;;;;5111434;28;20062;-52
2021/12/20 11:03:25;;;;;;;3.35;2.10;;;20.80;49.90;;;;;;5118421;28;20047;-56
2021/12/20 11:06:13;;;;;;;3.90;2.28;;;20.80;49.90;;;;;;5116427;28;20495;-55
2021/12/20 11:09:05;;;;;;;3.47;2.42;;;20.80;50.00;;;;;;5115962;28;20170;-53
2021/12/20 11:11:40;;;;;;;3.00;2.15;;;20.80;50.00;;;;;;5115786;28;20526;-55
2021/12/20 11:14:14;;;;;;;4.38;2.45;;;20.80;49.90;;;;;;5116472;28;20043;-55
2021/12/20 11:16:49;;;;;;;;;;;20.80;49.90;;;;;;5121100;28;20074;-53
2021/12/20 11:19:24;;;;;;;7.75;2.20;;;20.80;50.00;;;;;;5116688;28;20440;-53
2021/12/20 11:22:09;;;;;;;4.00;2.33;;;20.80;50.00;;;;;;5126134;28;20046;-55
2021/12/20 11:24:47;;;;;;;6.80;2.30;;;20.80;50.00;;;;;;5126899;28;20434;-56
2021/12/20 11:27:22;;;;;;;3.30;2.17;;;20.80;50.00;;;;;;5124517;28;20043;-52
2021/12/20 11:29:56;;;;;;;5.18;2.33;;;20.80;50.10;;;;;;5124475;28;20050;-55
2021/12/20 11:32:28;;;;;;;4.80;2.72;;;20.80;50.10;;;;;;5124673;28;20338;-55
2021/12/20 11:35:01;;;;;;;5.20;2.03;;;20.80;50.10;;;;;;5125744;28;20054;-54
2021/12/20 11:37:33;;;;;;;4.20;2.35;;;20.90;50.10;;;;;;5127257;28;20070;-56
2021/12/20 11:40:09;;;;;;;4.28;2.17;;;20.80;50.10;;;;;;5125152;28;20062;-55
2021/12/20 11:42:41;;;;;;;3.63;2.50;;;20.90;50.10;;;;;;5122599;28;20283;-55
2021/12/20 11:45:16;;;;;;;6.43;2.65;;;20.90;50.30;;;;;;5122728;28;20043;-57
2021/12/20 11:47:51;;;;;;;5.30;2.15;;;20.90;50.40;;;;;;5125196;28;20054;-57
2021/12/20 11:50:32;;;;;;;7.75;2.97;;;20.90;50.30;;;;;;5125176;28;20063;-55
2021/12/20 11:53:22;;;;;;;3.90;2.15;;;20.90;50.30;;;;;;5126173;28;20047;-56
2021/12/20 11:55:55;;;;;;;5.25;2.42;;;20.90;50.30;;;;;;5122054;28;20058;-57
2021/12/20 11:58:30;;;;;;;4.78;2.40;;;20.90;50.30;;;;;;5125340;28;20054;-53
2021/12/20 12:01:05;;;;;;;4.55;1.90;;;20.90;50.30;;;;;;5119495;28;20416;-55
2021/12/20 12:03:39;;;;;;;4.55;2.15;;;20.90;50.30;;;;;;5124433;28;20054;-58
2021/12/20 12:06:24;;;;;;;6.90;2.80;;;20.90;50.40;;;;;;5120548;28;20055;-56
2021/12/20 12:09:01;;;;;;;6.90;2.25;;;20.90;50.30;;;;;;5119203;28;20615;-53
2021/12/20 12:11:54;;;;;;;5.57;2.20;;;21.00;50.30;;;;;;5115554;28;20039;-56
2021/12/20 12:14:35;;;;;;;3.45;2.15;;;20.90;50.30;;;;;;5119463;28;20055;-58
2021/12/20 12:17:10;;;;;;;7.63;2.58;;;20.90;50.30;;;;;;5109286;28;20039;-58
2021/12/20 12:19:48;;;;;;;6.22;2.42;;;20.90;50.20;;;;;;5093245;28;20042;-58
2021/12/20 12:22:27;;;;;;;4.38;2.33;;;20.90;50.20;;;;;;5093410;28;20046;-58
2021/12/20 12:25:00;;;;;;;4.15;2.20;;;21.00;50.10;;;;;;5106273;28;20050;-56
2021/12/20 12:27:34;;;;;;;;;;;21.00;50.00;;;;;;5099872;28;20054;-56
2021/12/20 12:30:12;;;;;;;4.15;2.50;;;20.90;50.00;;;;;;5101049;28;19922;-58
2021/12/20 12:32:44;;;;;;;6.57;2.50;;;20.90;50.10;;;;;;5100246;28;20061;-56
2021/12/20 12:35:39;;;;;;;5.82;2.70;;;21.00;50.10;;;;;;5106256;28;20069;-56
2021/12/20 12:38:35;;;;;;;8.10;2.20;;;21.00;50.10;;;;;;5106032;28;20043;-56
2021/12/20 12:41:22;;;;;;;9.50;2.40;;;21.00;50.10;;;;;;5098400;28;20046;-57
2021/12/20 12:43:55;;;;;;;9.65;3.15;;;21.00;50.10;;;;;;5103862;28;20523;-58
2021/12/20 12:46:36;;;;;;;4.97;2.28;;;21.00;50.20;;;;;;5110835;28;20051;-57
2021/12/20 12:49:25;;;;;;;5.38;2.60;;;21.00;50.30;;;;;;5117065;28;20047;-58
2021/12/20 12:51:59;;;;;;;10.65;2.45;;;21.00;50.50;;;;;;5102204;28;20051;-56
2021/12/20 12:54:56;;;;;;;8.65;2.35;;;21.00;50.80;;;;;;5100553;28;20058;-56
2021/12/20 12:57:31;;;;;;;20.05;3.58;;;21.00;50.90;;;;;;5108538;28;20135;-55
2021/12/20 13:00:11;;;;;;;8.85;3.42;;;21.00;50.90;;;;;;5104092;28;20055;-54
2021/12/20 13:02:45;;;;;;;4.43;2.80;;;21.00;50.90;;;;;;5110023;28;20051;-54
2021/12/20 13:05:22;;;;;;;10.32;2.40;;;21.10;51.10;;;;;;5104218;28;20042;-56
2021/12/20 13:08:03;;;;;;;3.78;2.53;;;21.10;51.20;;;;;;5108083;28;20615;-54
2021/12/20 13:10:42;;;;;;;7.10;2.50;;;21.10;51.50;;;;;;5112689;28;20042;-54
2021/12/20 13:13:29;;;;;;;7.13;2.13;;;21.10;51.40;;;;;;5103879;28;21993;-57
2021/12/20 13:16:05;;;;;;;9.65;2.22;;;21.10;51.20;;;;;;5114512;28;20414;-52
2021/12/20 13:18:39;;;;;;;10.02;2.13;;;21.10;51.10;;;;;;5132322;28;20057;-57
2021/12/20 13:21:20;;;;;;;7.05;2.20;;;21.20;51.40;;;;;;5130011;28;20083;-52
2021/12/20 13:23:52;;;;;;;7.93;2.78;;;21.20;51.40;;;;;;5116247;28;20051;-54
2021/12/20 13:26:25;;;;;;;4.65;1.98;;;21.20;51.50;;;;;;5114786;28;20050;-56
2021/12/20 13:29:00;;;;;;;9.07;2.30;;;21.20;51.40;;;;;;5117036;28;20311;-58
2021/12/20 13:31:33;;;;;;;6.35;2.30;;;21.20;51.50;;;;;;5104019;28;20046;-56
2021/12/20 13:34:11;;;;;;;5.25;2.30;;;21.20;51.20;;;;;;5103312;28;20039;-58
2021/12/20 13:36:50;;;;;;;4.32;1.92;;;21.20;51.10;;;;;;5113944;28;20054;-58